sensor_id;sensor_type;location;lat;lon;timestamp;P1;durP1;ratioP1;P2;durP2;ratioP2
25922;SDS011;13725;51.170;4.442;2023-03-12T00:00:31;16.67;;;4.35;;
25922;SDS011;13725;51.170;4.442;2023-03-12T00:02:57;14.02;;;4.50;;
25922;SDS011;13725;51.170;4.442;2023-03-12T00:05:22;8.70;;;3.72;;
25922;SDS011;13725;51.170;4.442;2023-03-12T00:07:50;8.85;;;4.15;;
25922;SDS011;13725;51.170;4.442;2023-03-12T00:10:17;11.80;;;3.83;;
25922;SDS011;13725;51.170;4.442;2023-03-12T00:12:43;15.43;;;3.80;;
25922;SDS011;13725;51.170;4.442;2023-03-12T00:15:09;13.52;;;5.57;;
25922;SDS011;13725;51.170;4.442;2023-03-12T00:17:35;12.77;;;4.57;;
25922;SDS011;13725;51.170;4.442;2023-03-12T00:20:01;12.32;;;4.30;;
25922;SDS011;13725;51.170;4.442;2023-03-12T00:22:27;10.95;;;3.97;;
25922;SDS011;13725;51.170;4.442;2023-03-12T00:24:56;9.50;;;3.97;;
25922;SDS011;13725;51.170;4.442;2023-03-12T00:27:22;11.63;;;4.45;;
25922;SDS011;13725;51.170;4.442;2023-03-12T00:29:49;9.13;;;3.85;;
25922;SDS011;13725;51.170;4.442;2023-03-12T00:32:15;8.48;;;3.83;;
25922;SDS011;13725;51.170;4.442;2023-03-12T00:34:41;14.18;;;4.28;;
25922;SDS011;13725;51.170;4.442;2023-03-12T00:37:07;12.05;;;3.95;;
25922;SDS011;13725;51.170;4.442;2023-03-12T00:39:33;10.55;;;3.85;;
25922;SDS011;13725;51.170;4.442;2023-03-12T00:41:59;8.23;;;3.42;;
25922;SDS011;13725;51.170;4.442;2023-03-12T00:44:25;8.60;;;4.55;;
25922;SDS011;13725;51.170;4.442;2023-03-12T00:46:51;8.38;;;5.00;;
25922;SDS011;13725;51.170;4.442;2023-03-12T00:49:17;10.52;;;3.90;;
25922;SDS011;13725;51.170;4.442;2023-03-12T00:51:43;11.13;;;4.10;;
25922;SDS011;13725;51.170;4.442;2023-03-12T00:54:09;12.43;;;4.03;;
25922;SDS011;13725;51.170;4.442;2023-03-12T00:56:35;9.68;;;3.90;;
25922;SDS011;13725;51.170;4.442;2023-03-12T00:59:00;6.32;;;3.55;;
25922;SDS011;13725;51.170;4.442;2023-03-12T01:01:26;9.95;;;4.20;;
25922;SDS011;13725;51.170;4.442;2023-03-12T01:03:52;13.48;;;4.10;;
25922;SDS011;13725;51.170;4.442;2023-03-12T01:06:19;9.75;;;4.10;;
25922;SDS011;13725;51.170;4.442;2023-03-12T01:08:45;9.75;;;3.88;;
25922;SDS011;13725;51.170;4.442;2023-03-12T01:11:11;9.70;;;3.63;;
25922;SDS011;13725;51.170;4.442;2023-03-12T01:13:38;11.98;;;4.00;;
25922;SDS011;13725;51.170;4.442;2023-03-12T01:16:04;10.07;;;4.15;;
25922;SDS011;13725;51.170;4.442;2023-03-12T01:18:30;14.63;;;4.47;;
25922;SDS011;13725;51.170;4.442;2023-03-12T01:20:56;11.88;;;4.93;;
25922;SDS011;13725;51.170;4.442;2023-03-12T01:23:22;12.85;;;4.20;;
25922;SDS011;13725;51.170;4.442;2023-03-12T01:25:47;12.63;;;4.32;;
25922;SDS011;13725;51.170;4.442;2023-03-12T01:28:16;7.82;;;3.60;;
25922;SDS011;13725;51.170;4.442;2023-03-12T01:30:42;10.38;;;4.70;;
25922;SDS011;13725;51.170;4.442;2023-03-12T01:33:08;14.95;;;5.05;;
25922;SDS011;13725;51.170;4.442;2023-03-12T01:35:37;16.17;;;5.32;;
25922;SDS011;13725;51.170;4.442;2023-03-12T01:38:04;11.32;;;4.50;;
25922;SDS011;13725;51.170;4.442;2023-03-12T01:40:32;9.25;;;4.57;;
25922;SDS011;13725;51.170;4.442;2023-03-12T01:43:19;12.40;;;4.97;;
25922;SDS011;13725;51.170;4.442;2023-03-12T01:48:47;19.17;;;5.13;;
25922;SDS011;13725;51.170;4.442;2023-03-12T01:51:17;9.73;;;4.32;;
25922;SDS011;13725;51.170;4.442;2023-03-12T01:53:47;13.52;;;5.20;;
25922;SDS011;13725;51.170;4.442;2023-03-12T01:56:17;12.48;;;4.45;;
25922;SDS011;13725;51.170;4.442;2023-03-12T01:58:47;13.18;;;4.63;;
25922;SDS011;13725;51.170;4.442;2023-03-12T02:01:18;10.30;;;4.88;;
25922;SDS011;13725;51.170;4.442;2023-03-12T02:03:46;19.08;;;6.22;;
25922;SDS011;13725;51.170;4.442;2023-03-12T02:06:16;13.05;;;5.22;;
25922;SDS011;13725;51.170;4.442;2023-03-12T02:08:47;10.63;;;4.68;;
25922;SDS011;13725;51.170;4.442;2023-03-12T02:11:14;11.10;;;5.15;;
25922;SDS011;13725;51.170;4.442;2023-03-12T02:13:40;12.50;;;4.90;;
25922;SDS011;13725;51.170;4.442;2023-03-12T02:16:06;11.85;;;5.22;;
25922;SDS011;13725;51.170;4.442;2023-03-12T02:18:33;12.05;;;5.07;;
25922;SDS011;13725;51.170;4.442;2023-03-12T02:21:03;10.75;;;4.45;;
25922;SDS011;13725;51.170;4.442;2023-03-12T02:23:31;13.95;;;4.88;;
25922;SDS011;13725;51.170;4.442;2023-03-12T02:26:05;14.68;;;4.88;;
25922;SDS011;13725;51.170;4.442;2023-03-12T02:28:33;8.73;;;4.00;;
25922;SDS011;13725;51.170;4.442;2023-03-12T02:31:07;10.93;;;4.55;;
25922;SDS011;13725;51.170;4.442;2023-03-12T02:33:34;12.20;;;4.15;;
25922;SDS011;13725;51.170;4.442;2023-03-12T02:36:01;13.60;;;4.07;;
25922;SDS011;13725;51.170;4.442;2023-03-12T02:38:30;15.27;;;4.28;;
25922;SDS011;13725;51.170;4.442;2023-03-12T02:40:57;7.55;;;3.70;;
25922;SDS011;13725;51.170;4.442;2023-03-12T02:43:26;12.52;;;3.70;;
25922;SDS011;13725;51.170;4.442;2023-03-12T02:45:53;7.38;;;3.55;;
25922;SDS011;13725;51.170;4.442;2023-03-12T02:48:21;13.82;;;3.65;;
25922;SDS011;13725;51.170;4.442;2023-03-12T02:50:47;8.02;;;3.33;;
25922;SDS011;13725;51.170;4.442;2023-03-12T02:53:12;6.47;;;3.05;;
25922;SDS011;13725;51.170;4.442;2023-03-12T02:55:38;8.15;;;3.20;;
25922;SDS011;13725;51.170;4.442;2023-03-12T02:58:04;7.75;;;3.00;;
25922;SDS011;13725;51.170;4.442;2023-03-12T03:00:30;7.20;;;3.33;;
25922;SDS011;13725;51.170;4.442;2023-03-12T03:02:59;8.77;;;3.40;;
25922;SDS011;13725;51.170;4.442;2023-03-12T03:05:26;11.50;;;3.30;;
25922;SDS011;13725;51.170;4.442;2023-03-12T03:07:52;13.23;;;3.50;;
25922;SDS011;13725;51.170;4.442;2023-03-12T03:10:17;8.40;;;3.42;;
25922;SDS011;13725;51.170;4.442;2023-03-12T03:12:44;10.52;;;3.63;;
25922;SDS011;13725;51.170;4.442;2023-03-12T03:15:10;10.32;;;3.22;;
25922;SDS011;13725;51.170;4.442;2023-03-12T03:17:36;14.40;;;3.53;;
25922;SDS011;13725;51.170;4.442;2023-03-12T03:20:03;10.00;;;3.63;;
25922;SDS011;13725;51.170;4.442;2023-03-12T03:22:32;11.82;;;3.40;;
25922;SDS011;13725;51.170;4.442;2023-03-12T03:24:58;7.22;;;3.03;;
25922;SDS011;13725;51.170;4.442;2023-03-12T03:27:24;9.07;;;2.97;;
25922;SDS011;13725;51.170;4.442;2023-03-12T03:29:50;9.95;;;3.08;;
25922;SDS011;13725;51.170;4.442;2023-03-12T03:32:16;8.90;;;3.63;;
25922;SDS011;13725;51.170;4.442;2023-03-12T03:34:42;9.20;;;2.90;;
25922;SDS011;13725;51.170;4.442;2023-03-12T03:37:08;6.10;;;2.95;;
25922;SDS011;13725;51.170;4.442;2023-03-12T03:39:34;7.25;;;3.22;;
25922;SDS011;13725;51.170;4.442;2023-03-12T03:42:00;5.70;;;3.00;;
25922;SDS011;13725;51.170;4.442;2023-03-12T03:44:28;10.40;;;3.42;;
25922;SDS011;13725;51.170;4.442;2023-03-12T03:46:54;7.07;;;2.90;;
25922;SDS011;13725;51.170;4.442;2023-03-12T03:49:20;6.18;;;3.15;;
25922;SDS011;13725;51.170;4.442;2023-03-12T03:51:47;5.88;;;3.08;;
25922;SDS011;13725;51.170;4.442;2023-03-12T03:54:18;6.18;;;2.67;;
25922;SDS011;13725;51.170;4.442;2023-03-12T03:56:44;8.15;;;3.22;;
25922;SDS011;13725;51.170;4.442;2023-03-12T03:59:10;10.82;;;2.83;;
25922;SDS011;13725;51.170;4.442;2023-03-12T04:01:38;15.00;;;4.30;;
25922;SDS011;13725;51.170;4.442;2023-03-12T04:04:04;10.75;;;3.03;;
25922;SDS011;13725;51.170;4.442;2023-03-12T04:06:31;12.25;;;2.97;;
25922;SDS011;13725;51.170;4.442;2023-03-12T04:08:57;9.98;;;3.05;;
25922;SDS011;13725;51.170;4.442;2023-03-12T04:11:24;10.20;;;3.03;;
25922;SDS011;13725;51.170;4.442;2023-03-12T04:13:51;5.00;;;2.88;;
25922;SDS011;13725;51.170;4.442;2023-03-12T04:16:20;6.38;;;2.78;;
25922;SDS011;13725;51.170;4.442;2023-03-12T04:18:47;8.80;;;2.92;;
25922;SDS011;13725;51.170;4.442;2023-03-12T04:21:14;10.30;;;3.15;;
25922;SDS011;13725;51.170;4.442;2023-03-12T04:23:40;7.30;;;2.83;;
25922;SDS011;13725;51.170;4.442;2023-03-12T04:26:08;10.25;;;3.75;;
25922;SDS011;13725;51.170;4.442;2023-03-12T04:28:35;9.00;;;2.83;;
25922;SDS011;13725;51.170;4.442;2023-03-12T04:31:02;7.45;;;3.80;;
25922;SDS011;13725;51.170;4.442;2023-03-12T04:33:36;10.88;;;4.47;;
25922;SDS011;13725;51.170;4.442;2023-03-12T04:36:03;9.13;;;3.22;;
25922;SDS011;13725;51.170;4.442;2023-03-12T04:38:31;8.75;;;3.17;;
25922;SDS011;13725;51.170;4.442;2023-03-12T04:41:04;14.48;;;3.60;;
25922;SDS011;13725;51.170;4.442;2023-03-12T04:43:33;5.20;;;2.58;;
25922;SDS011;13725;51.170;4.442;2023-03-12T04:45:59;11.43;;;3.50;;
25922;SDS011;13725;51.170;4.442;2023-03-12T04:48:27;9.25;;;3.05;;
25922;SDS011;13725;51.170;4.442;2023-03-12T04:50:53;11.48;;;3.50;;
25922;SDS011;13725;51.170;4.442;2023-03-12T04:53:19;9.23;;;3.35;;
25922;SDS011;13725;51.170;4.442;2023-03-12T04:55:47;9.85;;;3.47;;
25922;SDS011;13725;51.170;4.442;2023-03-12T04:58:14;11.63;;;3.15;;
25922;SDS011;13725;51.170;4.442;2023-03-12T05:00:40;8.23;;;3.45;;
25922;SDS011;13725;51.170;4.442;2023-03-12T05:03:06;10.95;;;3.15;;
25922;SDS011;13725;51.170;4.442;2023-03-12T05:05:33;8.68;;;3.35;;
25922;SDS011;13725;51.170;4.442;2023-03-12T05:08:00;8.35;;;2.90;;
25922;SDS011;13725;51.170;4.442;2023-03-12T05:10:27;7.38;;;2.80;;
25922;SDS011;13725;51.170;4.442;2023-03-12T05:12:52;11.02;;;3.78;;
25922;SDS011;13725;51.170;4.442;2023-03-12T05:15:19;11.07;;;3.50;;
25922;SDS011;13725;51.170;4.442;2023-03-12T05:17:45;7.65;;;3.47;;
25922;SDS011;13725;51.170;4.442;2023-03-12T05:20:11;8.45;;;3.20;;
25922;SDS011;13725;51.170;4.442;2023-03-12T05:22:37;13.32;;;3.28;;
25922;SDS011;13725;51.170;4.442;2023-03-12T05:25:04;11.35;;;3.63;;
25922;SDS011;13725;51.170;4.442;2023-03-12T05:27:31;12.38;;;3.78;;
25922;SDS011;13725;51.170;4.442;2023-03-12T05:29:57;7.85;;;3.50;;
25922;SDS011;13725;51.170;4.442;2023-03-12T05:32:24;10.02;;;3.55;;
25922;SDS011;13725;51.170;4.442;2023-03-12T05:34:50;11.13;;;3.85;;
25922;SDS011;13725;51.170;4.442;2023-03-12T05:37:15;8.93;;;3.33;;
25922;SDS011;13725;51.170;4.442;2023-03-12T05:39:42;11.65;;;4.07;;
25922;SDS011;13725;51.170;4.442;2023-03-12T05:42:12;10.30;;;3.90;;
25922;SDS011;13725;51.170;4.442;2023-03-12T05:44:38;9.98;;;3.95;;
25922;SDS011;13725;51.170;4.442;2023-03-12T05:47:05;6.43;;;3.65;;
25922;SDS011;13725;51.170;4.442;2023-03-12T05:49:31;10.65;;;4.15;;
25922;SDS011;13725;51.170;4.442;2023-03-12T05:51:57;8.88;;;3.88;;
25922;SDS011;13725;51.170;4.442;2023-03-12T05:54:22;13.65;;;6.22;;
25922;SDS011;13725;51.170;4.442;2023-03-12T05:56:50;8.55;;;4.00;;
25922;SDS011;13725;51.170;4.442;2023-03-12T05:59:17;10.05;;;4.70;;
25922;SDS011;13725;51.170;4.442;2023-03-12T06:01:43;11.95;;;4.70;;
25922;SDS011;13725;51.170;4.442;2023-03-12T06:04:09;9.13;;;4.50;;
25922;SDS011;13725;51.170;4.442;2023-03-12T06:06:35;11.27;;;5.10;;
25922;SDS011;13725;51.170;4.442;2023-03-12T06:09:02;8.82;;;5.05;;
25922;SDS011;13725;51.170;4.442;2023-03-12T06:11:29;16.83;;;6.05;;
25922;SDS011;13725;51.170;4.442;2023-03-12T06:13:56;12.30;;;5.65;;
25922;SDS011;13725;51.170;4.442;2023-03-12T06:16:24;10.48;;;5.65;;
25922;SDS011;13725;51.170;4.442;2023-03-12T06:18:52;11.95;;;5.72;;
25922;SDS011;13725;51.170;4.442;2023-03-12T06:21:20;13.75;;;6.18;;
25922;SDS011;13725;51.170;4.442;2023-03-12T06:23:48;16.30;;;6.50;;
25922;SDS011;13725;51.170;4.442;2023-03-12T06:26:20;16.80;;;6.20;;
25922;SDS011;13725;51.170;4.442;2023-03-12T06:28:46;16.38;;;6.72;;
25922;SDS011;13725;51.170;4.442;2023-03-12T06:31:13;16.25;;;7.72;;
25922;SDS011;13725;51.170;4.442;2023-03-12T06:33:39;15.57;;;8.02;;
25922;SDS011;13725;51.170;4.442;2023-03-12T06:36:06;14.95;;;7.03;;
25922;SDS011;13725;51.170;4.442;2023-03-12T06:38:32;15.68;;;7.05;;
25922;SDS011;13725;51.170;4.442;2023-03-12T06:41:03;19.30;;;8.27;;
25922;SDS011;13725;51.170;4.442;2023-03-12T06:43:31;16.85;;;7.93;;
25922;SDS011;13725;51.170;4.442;2023-03-12T06:45:58;18.45;;;8.95;;
25922;SDS011;13725;51.170;4.442;2023-03-12T06:48:25;19.58;;;9.10;;
25922;SDS011;13725;51.170;4.442;2023-03-12T06:50:52;22.80;;;10.50;;
25922;SDS011;13725;51.170;4.442;2023-03-12T06:53:18;20.48;;;11.25;;
25922;SDS011;13725;51.170;4.442;2023-03-12T06:55:45;21.58;;;10.15;;
25922;SDS011;13725;51.170;4.442;2023-03-12T06:58:14;26.10;;;11.55;;
25922;SDS011;13725;51.170;4.442;2023-03-12T07:00:40;22.95;;;10.98;;
25922;SDS011;13725;51.170;4.442;2023-03-12T07:03:06;21.83;;;11.10;;
25922;SDS011;13725;51.170;4.442;2023-03-12T07:05:32;28.25;;;11.98;;
25922;SDS011;13725;51.170;4.442;2023-03-12T07:07:58;24.38;;;11.05;;
25922;SDS011;13725;51.170;4.442;2023-03-12T07:10:24;29.00;;;11.57;;
25922;SDS011;13725;51.170;4.442;2023-03-12T07:12:53;25.17;;;13.68;;
25922;SDS011;13725;51.170;4.442;2023-03-12T07:15:20;27.95;;;12.07;;
25922;SDS011;13725;51.170;4.442;2023-03-12T07:17:45;25.65;;;12.48;;
25922;SDS011;13725;51.170;4.442;2023-03-12T07:20:11;29.40;;;12.80;;
25922;SDS011;13725;51.170;4.442;2023-03-12T07:22:37;25.02;;;12.40;;
25922;SDS011;13725;51.170;4.442;2023-03-12T07:25:03;26.17;;;12.55;;
25922;SDS011;13725;51.170;4.442;2023-03-12T07:27:29;26.50;;;12.48;;
25922;SDS011;13725;51.170;4.442;2023-03-12T07:29:55;31.00;;;13.48;;
25922;SDS011;13725;51.170;4.442;2023-03-12T07:32:20;31.15;;;13.05;;
25922;SDS011;13725;51.170;4.442;2023-03-12T07:34:46;29.50;;;14.23;;
25922;SDS011;13725;51.170;4.442;2023-03-12T07:37:12;28.40;;;14.05;;
25922;SDS011;13725;51.170;4.442;2023-03-12T07:39:38;28.73;;;13.40;;
25922;SDS011;13725;51.170;4.442;2023-03-12T07:42:03;32.10;;;14.70;;
25922;SDS011;13725;51.170;4.442;2023-03-12T07:44:31;31.17;;;14.95;;
25922;SDS011;13725;51.170;4.442;2023-03-12T07:46:57;38.10;;;13.57;;
25922;SDS011;13725;51.170;4.442;2023-03-12T07:49:23;44.15;;;16.75;;
25922;SDS011;13725;51.170;4.442;2023-03-12T07:51:50;30.38;;;13.65;;
25922;SDS011;13725;51.170;4.442;2023-03-12T07:54:16;37.55;;;15.30;;
25922;SDS011;13725;51.170;4.442;2023-03-12T07:56:41;30.17;;;14.25;;
25922;SDS011;13725;51.170;4.442;2023-03-12T07:59:07;37.58;;;15.77;;
25922;SDS011;13725;51.170;4.442;2023-03-12T08:01:33;35.15;;;14.65;;
25922;SDS011;13725;51.170;4.442;2023-03-12T08:04:00;46.78;;;15.07;;
25922;SDS011;13725;51.170;4.442;2023-03-12T08:06:27;44.58;;;14.63;;
25922;SDS011;13725;51.170;4.442;2023-03-12T08:08:53;45.00;;;14.55;;
25922;SDS011;13725;51.170;4.442;2023-03-12T08:11:19;45.58;;;14.32;;
25922;SDS011;13725;51.170;4.442;2023-03-12T08:13:45;45.58;;;14.38;;
25922;SDS011;13725;51.170;4.442;2023-03-12T08:16:11;47.45;;;16.33;;
25922;SDS011;13725;51.170;4.442;2023-03-12T08:18:38;50.70;;;14.93;;
25922;SDS011;13725;51.170;4.442;2023-03-12T08:21:04;46.45;;;14.68;;
25922;SDS011;13725;51.170;4.442;2023-03-12T08:23:30;57.45;;;16.00;;
25922;SDS011;13725;51.170;4.442;2023-03-12T08:25:57;52.78;;;15.38;;
25922;SDS011;13725;51.170;4.442;2023-03-12T08:28:23;57.47;;;14.70;;
25922;SDS011;13725;51.170;4.442;2023-03-12T08:30:50;60.67;;;16.73;;
25922;SDS011;13725;51.170;4.442;2023-03-12T08:33:19;54.55;;;15.07;;
25922;SDS011;13725;51.170;4.442;2023-03-12T08:35:45;50.17;;;15.35;;
25922;SDS011;13725;51.170;4.442;2023-03-12T08:38:12;56.13;;;14.82;;
25922;SDS011;13725;51.170;4.442;2023-03-12T08:40:38;52.38;;;14.10;;
25922;SDS011;13725;51.170;4.442;2023-03-12T08:43:04;59.03;;;14.45;;
25922;SDS011;13725;51.170;4.442;2023-03-12T08:45:32;59.15;;;13.57;;
25922;SDS011;13725;51.170;4.442;2023-03-12T08:48:01;53.65;;;15.02;;
25922;SDS011;13725;51.170;4.442;2023-03-12T08:50:27;56.00;;;14.40;;
25922;SDS011;13725;51.170;4.442;2023-03-12T08:52:55;56.88;;;15.13;;
25922;SDS011;13725;51.170;4.442;2023-03-12T08:55:21;46.13;;;13.98;;
25922;SDS011;13725;51.170;4.442;2023-03-12T08:57:46;56.38;;;14.43;;
25922;SDS011;13725;51.170;4.442;2023-03-12T09:00:12;47.95;;;13.27;;
25922;SDS011;13725;51.170;4.442;2023-03-12T09:02:42;50.60;;;12.30;;
25922;SDS011;13725;51.170;4.442;2023-03-12T09:05:11;41.92;;;11.75;;
25922;SDS011;13725;51.170;4.442;2023-03-12T09:07:37;45.03;;;12.77;;
25922;SDS011;13725;51.170;4.442;2023-03-12T09:10:03;44.60;;;12.13;;
25922;SDS011;13725;51.170;4.442;2023-03-12T09:12:30;42.28;;;10.77;;
25922;SDS011;13725;51.170;4.442;2023-03-12T09:14:57;37.65;;;11.95;;
25922;SDS011;13725;51.170;4.442;2023-03-12T09:17:22;50.22;;;10.38;;
25922;SDS011;13725;51.170;4.442;2023-03-12T09:19:48;41.10;;;10.55;;
25922;SDS011;13725;51.170;4.442;2023-03-12T09:22:14;43.60;;;10.90;;
25922;SDS011;13725;51.170;4.442;2023-03-12T09:24:40;47.97;;;10.32;;
25922;SDS011;13725;51.170;4.442;2023-03-12T09:27:05;50.90;;;10.80;;
25922;SDS011;13725;51.170;4.442;2023-03-12T09:29:32;43.15;;;8.45;;
25922;SDS011;13725;51.170;4.442;2023-03-12T09:31:58;41.45;;;8.88;;
25922;SDS011;13725;51.170;4.442;2023-03-12T09:34:24;35.08;;;7.65;;
25922;SDS011;13725;51.170;4.442;2023-03-12T09:36:49;37.25;;;9.02;;
25922;SDS011;13725;51.170;4.442;2023-03-12T09:39:16;51.20;;;10.65;;
25922;SDS011;13725;51.170;4.442;2023-03-12T09:41:43;39.53;;;8.52;;
25922;SDS011;13725;51.170;4.442;2023-03-12T09:44:57;35.20;;;7.25;;
25922;SDS011;13725;51.170;4.442;2023-03-12T09:47:07;36.83;;;6.85;;
25922;SDS011;13725;51.170;4.442;2023-03-12T09:49:55;38.42;;;7.30;;
25922;SDS011;13725;51.170;4.442;2023-03-12T09:52:35;52.92;;;9.18;;
25922;SDS011;13725;51.170;4.442;2023-03-12T09:57:42;32.85;;;6.75;;
25922;SDS011;13725;51.170;4.442;2023-03-12T10:00:13;33.88;;;8.55;;
25922;SDS011;13725;51.170;4.442;2023-03-12T10:05:45;37.05;;;6.28;;
25922;SDS011;13725;51.170;4.442;2023-03-12T10:08:31;35.28;;;5.72;;
25922;SDS011;13725;51.170;4.442;2023-03-12T10:14:14;37.13;;;5.72;;
25922;SDS011;13725;51.170;4.442;2023-03-12T10:17:14;42.08;;;7.57;;
25922;SDS011;13725;51.170;4.442;2023-03-12T10:20:00;41.75;;;6.93;;
25922;SDS011;13725;51.170;4.442;2023-03-12T10:27:48;40.42;;;7.40;;
25922;SDS011;13725;51.170;4.442;2023-03-12T10:30:19;37.65;;;5.95;;
25922;SDS011;13725;51.170;4.442;2023-03-12T10:33:08;30.38;;;5.53;;
25922;SDS011;13725;51.170;4.442;2023-03-12T10:35:37;36.92;;;7.15;;
25922;SDS011;13725;51.170;4.442;2023-03-12T10:38:04;36.15;;;6.90;;
25922;SDS011;13725;51.170;4.442;2023-03-12T10:40:39;32.53;;;6.50;;
25922;SDS011;13725;51.170;4.442;2023-03-12T10:43:05;34.95;;;6.35;;
25922;SDS011;13725;51.170;4.442;2023-03-12T10:48:28;34.83;;;8.65;;
25922;SDS011;13725;51.170;4.442;2023-03-12T10:53:48;42.22;;;8.15;;
25922;SDS011;13725;51.170;4.442;2023-03-12T10:56:15;40.47;;;6.57;;
25922;SDS011;13725;51.170;4.442;2023-03-12T10:58:43;36.97;;;7.35;;
25922;SDS011;13725;51.170;4.442;2023-03-12T11:03:39;26.15;;;5.25;;
25922;SDS011;13725;51.170;4.442;2023-03-12T11:06:06;34.45;;;7.13;;
25922;SDS011;13725;51.170;4.442;2023-03-12T11:08:35;32.90;;;5.78;;
25922;SDS011;13725;51.170;4.442;2023-03-12T11:11:02;37.70;;;6.63;;
25922;SDS011;13725;51.170;4.442;2023-03-12T11:16:22;31.23;;;6.28;;
25922;SDS011;13725;51.170;4.442;2023-03-12T11:18:58;28.13;;;5.35;;
25922;SDS011;13725;51.170;4.442;2023-03-12T11:21:29;31.63;;;6.68;;
25922;SDS011;13725;51.170;4.442;2023-03-12T11:26:46;26.13;;;5.28;;
25922;SDS011;13725;51.170;4.442;2023-03-12T11:29:17;29.80;;;5.88;;
25922;SDS011;13725;51.170;4.442;2023-03-12T11:34:42;29.70;;;5.50;;
25922;SDS011;13725;51.170;4.442;2023-03-12T11:58:42;28.27;;;5.05;;
25922;SDS011;13725;51.170;4.442;2023-03-12T12:01:20;29.38;;;5.18;;
25922;SDS011;13725;51.170;4.442;2023-03-12T12:10:02;24.25;;;5.43;;
25922;SDS011;13725;51.170;4.442;2023-03-12T12:12:47;30.65;;;6.28;;
25922;SDS011;13725;51.170;4.442;2023-03-12T12:32:11;28.98;;;5.55;;
25922;SDS011;13725;51.170;4.442;2023-03-12T12:37:30;42.15;;;7.65;;
25922;SDS011;13725;51.170;4.442;2023-03-12T12:42:54;53.22;;;12.18;;
25922;SDS011;13725;51.170;4.442;2023-03-12T12:45:39;34.35;;;6.60;;
25922;SDS011;13725;51.170;4.442;2023-03-12T12:50:51;40.65;;;9.73;;
25922;SDS011;13725;51.170;4.442;2023-03-12T13:01:31;37.40;;;9.43;;
25922;SDS011;13725;51.170;4.442;2023-03-12T13:04:08;27.35;;;4.93;;
25922;SDS011;13725;51.170;4.442;2023-03-12T13:09:48;23.42;;;4.47;;
25922;SDS011;13725;51.170;4.442;2023-03-12T13:12:31;31.30;;;4.97;;
25922;SDS011;13725;51.170;4.442;2023-03-12T13:15:31;28.58;;;5.70;;
25922;SDS011;13725;51.170;4.442;2023-03-12T13:20:24;38.10;;;6.38;;
25922;SDS011;13725;51.170;4.442;2023-03-12T13:23:16;33.60;;;6.22;;
25922;SDS011;13725;51.170;4.442;2023-03-12T13:36:24;30.83;;;4.25;;
25922;SDS011;13725;51.170;4.442;2023-03-12T13:38:59;23.50;;;6.00;;
25922;SDS011;13725;51.170;4.442;2023-03-12T13:43:57;26.45;;;4.35;;
25922;SDS011;13725;51.170;4.442;2023-03-12T13:46:27;27.10;;;4.68;;
25922;SDS011;13725;51.170;4.442;2023-03-12T13:49:01;22.70;;;4.82;;
25922;SDS011;13725;51.170;4.442;2023-03-12T13:51:29;27.98;;;4.72;;
25922;SDS011;13725;51.170;4.442;2023-03-12T13:53:57;29.45;;;4.68;;
25922;SDS011;13725;51.170;4.442;2023-03-12T13:56:26;38.40;;;5.88;;
25922;SDS011;13725;51.170;4.442;2023-03-12T14:01:25;25.25;;;5.05;;
25922;SDS011;13725;51.170;4.442;2023-03-12T14:04:05;26.38;;;5.45;;
25922;SDS011;13725;51.170;4.442;2023-03-12T14:06:36;27.30;;;5.40;;
25922;SDS011;13725;51.170;4.442;2023-03-12T14:14:48;34.55;;;6.35;;
25922;SDS011;13725;51.170;4.442;2023-03-12T14:17:29;23.42;;;4.80;;
25922;SDS011;13725;51.170;4.442;2023-03-12T14:20:04;23.23;;;4.90;;
25922;SDS011;13725;51.170;4.442;2023-03-12T14:22:43;30.35;;;5.70;;
25922;SDS011;13725;51.170;4.442;2023-03-12T14:27:58;35.55;;;5.50;;
25922;SDS011;13725;51.170;4.442;2023-03-12T14:33:08;28.08;;;4.97;;
25922;SDS011;13725;51.170;4.442;2023-03-12T14:35:40;30.50;;;4.63;;
25922;SDS011;13725;51.170;4.442;2023-03-12T14:38:12;25.83;;;4.45;;
25922;SDS011;13725;51.170;4.442;2023-03-12T14:40:54;31.15;;;5.68;;
25922;SDS011;13725;51.170;4.442;2023-03-12T14:43:40;41.22;;;6.78;;
25922;SDS011;13725;51.170;4.442;2023-03-12T14:46:18;30.38;;;4.03;;
25922;SDS011;13725;51.170;4.442;2023-03-12T14:48:49;32.00;;;6.85;;
25922;SDS011;13725;51.170;4.442;2023-03-12T14:51:21;29.40;;;4.82;;
25922;SDS011;13725;51.170;4.442;2023-03-12T14:53:48;28.42;;;5.80;;
25922;SDS011;13725;51.170;4.442;2023-03-12T14:58:55;27.30;;;5.40;;
25922;SDS011;13725;51.170;4.442;2023-03-12T15:01:32;26.83;;;3.97;;
25922;SDS011;13725;51.170;4.442;2023-03-12T15:04:04;27.80;;;4.00;;
25922;SDS011;13725;51.170;4.442;2023-03-12T15:06:51;27.08;;;4.30;;
25922;SDS011;13725;51.170;4.442;2023-03-12T15:09:27;28.13;;;4.20;;
25922;SDS011;13725;51.170;4.442;2023-03-12T15:11:58;28.52;;;4.05;;
25922;SDS011;13725;51.170;4.442;2023-03-12T15:14:31;26.65;;;4.72;;
25922;SDS011;13725;51.170;4.442;2023-03-12T15:17:02;29.70;;;6.35;;
25922;SDS011;13725;51.170;4.442;2023-03-12T15:19:35;23.48;;;3.85;;
25922;SDS011;13725;51.170;4.442;2023-03-12T15:22:03;34.50;;;5.07;;
25922;SDS011;13725;51.170;4.442;2023-03-12T15:24:32;22.88;;;4.72;;
25922;SDS011;13725;51.170;4.442;2023-03-12T15:27:18;31.13;;;4.60;;
25922;SDS011;13725;51.170;4.442;2023-03-12T15:29:53;23.52;;;4.10;;
25922;SDS011;13725;51.170;4.442;2023-03-12T15:32:21;28.02;;;4.13;;
25922;SDS011;13725;51.170;4.442;2023-03-12T15:34:51;34.85;;;4.40;;
25922;SDS011;13725;51.170;4.442;2023-03-12T15:37:20;28.70;;;5.80;;
25922;SDS011;13725;51.170;4.442;2023-03-12T15:40:04;33.15;;;5.20;;
25922;SDS011;13725;51.170;4.442;2023-03-12T15:42:51;24.85;;;4.55;;
25922;SDS011;13725;51.170;4.442;2023-03-12T15:45:35;34.45;;;6.30;;
25922;SDS011;13725;51.170;4.442;2023-03-12T15:48:04;36.78;;;4.78;;
25922;SDS011;13725;51.170;4.442;2023-03-12T15:50:42;32.30;;;4.25;;
25922;SDS011;13725;51.170;4.442;2023-03-12T15:55:38;25.25;;;3.85;;
25922;SDS011;13725;51.170;4.442;2023-03-12T16:01:11;30.50;;;5.93;;
25922;SDS011;13725;51.170;4.442;2023-03-12T16:03:40;33.47;;;6.90;;
25922;SDS011;13725;51.170;4.442;2023-03-12T16:06:19;29.17;;;4.90;;
25922;SDS011;13725;51.170;4.442;2023-03-12T16:08:48;30.38;;;4.30;;
25922;SDS011;13725;51.170;4.442;2023-03-12T16:11:18;29.70;;;5.03;;
25922;SDS011;13725;51.170;4.442;2023-03-12T16:13:46;31.65;;;5.28;;
25922;SDS011;13725;51.170;4.442;2023-03-12T16:16:13;31.65;;;5.00;;
25922;SDS011;13725;51.170;4.442;2023-03-12T16:18:40;36.75;;;5.63;;
25922;SDS011;13725;51.170;4.442;2023-03-12T16:21:06;30.02;;;4.72;;
25922;SDS011;13725;51.170;4.442;2023-03-12T16:23:33;29.50;;;4.57;;
25922;SDS011;13725;51.170;4.442;2023-03-12T16:25:59;38.97;;;6.57;;
25922;SDS011;13725;51.170;4.442;2023-03-12T16:28:26;24.40;;;4.97;;
25922;SDS011;13725;51.170;4.442;2023-03-12T16:30:52;32.50;;;5.38;;
25922;SDS011;13725;51.170;4.442;2023-03-12T16:33:19;34.97;;;6.65;;
25922;SDS011;13725;51.170;4.442;2023-03-12T16:35:48;35.20;;;5.93;;
25922;SDS011;13725;51.170;4.442;2023-03-12T16:38:14;30.63;;;6.68;;
25922;SDS011;13725;51.170;4.442;2023-03-12T16:40:47;30.05;;;5.05;;
25922;SDS011;13725;51.170;4.442;2023-03-12T16:43:22;32.55;;;4.80;;
25922;SDS011;13725;51.170;4.442;2023-03-12T16:45:50;38.05;;;7.30;;
25922;SDS011;13725;51.170;4.442;2023-03-12T16:48:18;34.97;;;5.55;;
25922;SDS011;13725;51.170;4.442;2023-03-12T16:50:49;38.20;;;6.38;;
25922;SDS011;13725;51.170;4.442;2023-03-12T16:53:16;33.00;;;5.50;;
25922;SDS011;13725;51.170;4.442;2023-03-12T16:55:48;28.13;;;4.28;;
25922;SDS011;13725;51.170;4.442;2023-03-12T16:58:20;33.92;;;5.75;;